KBRO/BRO METAR and TAF weather

Enter ICAO airport designator
Station Type Date Time Source
KBRO METAR 2019/06/26 09:53 UTC NOAA

KBRO 260953Z AUTO 12006KT 10SM OVC031 27/26 A2996 RMK AO2 SLP144 T02720261


Station Type Date Time Source
KBRO Decoded METAR 2019/06/26 09:53 UTC NOAA

BROWNSVILLE/SOUTH PADRE IS, TX, United States (KBRO) 25-54N 97-25W 5M
Jun 26, 2019 - 05:53 AM EDT / 2019.06.26 0953 UTC
Wind: from the ESE (120 degrees) at 7 MPH (6 KT):0
Visibility: 10 mile(s):0
Sky conditions: overcast
Temperature: 81.0 F (27.2 C)
Dew Point: 79.0 F (26.1 C)
Relative Humidity: 93%
Pressure (altimeter): 29.96 in. Hg (1014 hPa)
ob: KBRO 260953Z AUTO 12006KT 10SM OVC031 27/26 A2996 RMK AO2 SLP144 T02720261
cycle: 10

Station Type Date Time Source
KBRO TAF 2019/06/26 06:22 UTC NOAA

TAF KBRO 260520Z 2606/2706 09008KT P6SM SCT030 BKN120
TEMPO 2609/2612 SCT015 BKN030
FM261200 13010KT P6SM SCT015 BKN030
FM261500 14015KT P6SM SCT030 BKN040
FM270000 11010KT P6SM SCT040 BKN050

Example: see airport list